createdAt,value
2018-12-07T00:02:21.405Z,12.10
2018-12-07T00:04:48.799Z,12.27
2018-12-07T00:07:16.424Z,12.23
2018-12-07T00:09:43.821Z,11.70
2018-12-07T00:12:11.205Z,11.30
2018-12-07T00:14:38.673Z,11.37
2018-12-07T00:17:06.109Z,11.47
2018-12-07T00:19:33.561Z,11.00
2018-12-07T00:22:01.029Z,10.80
2018-12-07T00:24:28.474Z,10.03
2018-12-07T00:26:55.863Z,10.23
2018-12-07T00:29:23.345Z,10.07
2018-12-07T00:31:50.737Z,10.13
2018-12-07T00:34:18.217Z,10.07
2018-12-07T00:36:45.613Z,10.23
2018-12-07T00:39:13.130Z,10.70
2018-12-07T00:41:40.521Z,9.83
2018-12-07T00:44:07.916Z,10.03
2018-12-07T00:46:35.301Z,10.13
2018-12-07T00:49:02.697Z,9.20
2018-12-07T00:51:30.167Z,9.80
2018-12-07T00:53:57.634Z,9.70
2018-12-07T00:56:25.032Z,9.50
2018-12-07T00:58:52.537Z,10.37
2018-12-07T01:01:19.929Z,10.03
2018-12-07T01:03:47.326Z,9.80
2018-12-07T01:06:14.789Z,10.60
2018-12-07T01:08:42.188Z,10.07
2018-12-07T01:11:09.620Z,10.20
2018-12-07T01:13:37.094Z,10.30
2018-12-07T01:16:04.533Z,9.97
2018-12-07T01:18:32.061Z,10.00
2018-12-07T01:20:59.498Z,11.17
2018-12-07T01:23:26.902Z,10.30
2018-12-07T01:25:54.325Z,10.80
2018-12-07T01:28:21.717Z,10.80
2018-12-07T01:30:49.192Z,10.50
2018-12-07T01:33:16.661Z,10.77
2018-12-07T01:35:44.049Z,10.87
2018-12-07T01:38:11.585Z,11.03
2018-12-07T01:40:38.996Z,11.10
2018-12-07T01:43:06.381Z,10.70
2018-12-07T01:45:33.862Z,10.93
2018-12-07T01:48:01.241Z,11.43
2018-12-07T01:50:28.705Z,11.47
2018-12-07T01:52:56.151Z,11.20
2018-12-07T01:55:23.582Z,11.03
2018-12-07T01:57:50.986Z,11.43
2018-12-07T02:00:18.458Z,11.40
2018-12-07T02:02:45.990Z,11.10
2018-12-07T02:05:13.565Z,11.50
2018-12-07T02:07:40.973Z,11.50
2018-12-07T02:10:08.456Z,11.87
2018-12-07T02:12:36.065Z,11.43
2018-12-07T02:15:03.846Z,11.63
2018-12-07T02:17:31.242Z,12.00
2018-12-07T02:19:58.638Z,12.00
2018-12-07T02:22:26.114Z,12.37
2018-12-07T02:24:53.505Z,12.07
2018-12-07T02:27:20.896Z,12.73
2018-12-07T02:29:48.382Z,13.17
2018-12-07T02:32:15.773Z,13.07
2018-12-07T02:34:43.166Z,12.87
2018-12-07T02:37:10.567Z,13.20
2018-12-07T02:39:38.073Z,12.80
2018-12-07T02:42:05.538Z,13.93
2018-12-07T02:44:32.946Z,12.70
2018-12-07T02:47:00.330Z,13.10
2018-12-07T02:49:27.717Z,12.00
2018-12-07T02:51:55.115Z,13.30
2018-12-07T02:54:22.514Z,13.27
2018-12-07T02:56:49.905Z,12.57
2018-12-07T02:59:17.293Z,13.47
2018-12-07T03:01:44.685Z,12.60
2018-12-07T03:04:12.078Z,12.27
2018-12-07T03:06:39.470Z,12.90
2018-12-07T03:09:06.937Z,12.90
2018-12-07T03:11:37.702Z,13.00
2018-12-07T03:14:05.104Z,12.77
2018-12-07T03:16:32.577Z,13.47
2018-12-07T03:19:00.009Z,13.30
2018-12-07T03:21:27.444Z,12.80
2018-12-07T03:23:54.915Z,13.07
2018-12-07T03:26:22.404Z,12.83
2018-12-07T03:28:49.788Z,12.63
2018-12-07T03:31:17.219Z,12.97
2018-12-07T03:33:44.734Z,13.10
2018-12-07T03:36:12.202Z,13.20
2018-12-07T03:38:39.674Z,12.87
2018-12-07T03:41:07.095Z,13.23
2018-12-07T03:43:34.585Z,13.13
2018-12-07T03:46:02.094Z,13.37
2018-12-07T03:48:29.574Z,13.40
2018-12-07T03:50:57.051Z,13.70
2018-12-07T03:53:24.725Z,13.70
2018-12-07T03:55:52.118Z,14.00
2018-12-07T03:58:19.551Z,14.10
2018-12-07T04:00:46.987Z,14.10
2018-12-07T04:03:14.460Z,13.57
2018-12-07T04:05:41.931Z,14.03
2018-12-07T04:08:09.394Z,13.57
2018-12-07T04:10:36.922Z,13.70
2018-12-07T04:13:04.414Z,13.97
2018-12-07T04:15:31.921Z,12.87
2018-12-07T04:17:59.407Z,13.60
2018-12-07T04:20:26.797Z,13.50
2018-12-07T04:22:54.288Z,13.30
2018-12-07T04:25:21.753Z,12.60
2018-12-07T04:27:49.140Z,13.67
2018-12-07T04:30:23.834Z,13.23
2018-12-07T04:32:51.228Z,13.13
2018-12-07T04:35:18.747Z,12.90
2018-12-07T04:37:46.194Z,12.30
2018-12-07T04:40:13.659Z,13.27
2018-12-07T04:42:41.224Z,12.67
2018-12-07T04:45:08.745Z,12.90
2018-12-07T04:47:36.320Z,12.97
2018-12-07T04:50:04.110Z,12.50
2018-12-07T04:52:31.579Z,12.40
2018-12-07T04:54:59.105Z,12.50
2018-12-07T04:57:26.540Z,13.23
2018-12-07T04:59:54.010Z,12.17
2018-12-07T05:02:21.403Z,12.80
2018-12-07T05:04:48.929Z,13.57
2018-12-07T05:07:16.404Z,12.73
2018-12-07T05:09:43.782Z,12.70
2018-12-07T05:12:11.179Z,12.80
2018-12-07T05:14:38.640Z,12.90
2018-12-07T05:17:06.113Z,11.93
2018-12-07T05:19:33.511Z,13.37
2018-12-07T05:22:01.033Z,12.90
2018-12-07T05:24:28.424Z,13.33
2018-12-07T05:26:55.827Z,13.20
2018-12-07T05:29:23.215Z,12.80
2018-12-07T05:31:50.846Z,13.67
2018-12-07T05:34:18.373Z,12.70
2018-12-07T05:36:45.834Z,13.00
2018-12-07T05:39:13.320Z,11.53
2018-12-07T05:41:40.832Z,12.13
2018-12-07T05:44:08.303Z,12.70
2018-12-07T05:46:35.765Z,12.60
2018-12-07T05:49:03.273Z,12.53
2018-12-07T05:51:30.782Z,12.63
2018-12-07T05:53:58.178Z,12.23
2018-12-07T05:56:25.563Z,13.77
2018-12-07T05:58:52.958Z,13.60
2018-12-07T06:01:20.351Z,13.47
2018-12-07T06:03:47.800Z,13.33
2018-12-07T06:06:15.267Z,14.60
2018-12-07T06:08:42.749Z,14.10
2018-12-07T06:11:10.138Z,14.60
2018-12-07T06:13:37.538Z,14.10
2018-12-07T06:16:04.927Z,14.60
2018-12-07T06:18:32.395Z,15.10
2018-12-07T06:20:59.786Z,15.83
2018-12-07T06:23:27.255Z,15.97
2018-12-07T06:25:54.741Z,16.07
2018-12-07T06:28:22.138Z,15.10
2018-12-07T06:30:49.666Z,15.60
2018-12-07T06:33:17.186Z,15.60
2018-12-07T06:35:44.590Z,16.00
2018-12-07T06:38:11.977Z,16.00
2018-12-07T06:40:39.381Z,15.67
2018-12-07T06:43:06.837Z,15.00
2018-12-07T06:45:35.158Z,15.37
2018-12-07T06:48:03.039Z,15.90
2018-12-07T06:50:30.479Z,16.43
2018-12-07T06:52:57.955Z,16.53
2018-12-07T06:55:25.414Z,15.50
2018-12-07T06:57:52.805Z,15.67
2018-12-07T07:00:20.338Z,15.40
2018-12-07T07:02:47.761Z,14.70
2018-12-07T07:05:15.160Z,14.30
2018-12-07T07:07:42.566Z,15.50
2018-12-07T07:10:10.033Z,14.57
2018-12-07T07:12:37.421Z,14.77
2018-12-07T07:15:04.998Z,14.90
2018-12-07T07:17:32.525Z,15.30
2018-12-07T07:19:59.913Z,14.90
2018-12-07T07:22:27.310Z,15.90
2018-12-07T07:24:54.813Z,15.37
2018-12-07T07:27:22.205Z,15.53
2018-12-07T07:29:49.592Z,14.60
2018-12-07T07:32:16.981Z,16.03
2018-12-07T07:34:44.369Z,15.00
2018-12-07T07:37:11.757Z,15.40
2018-12-07T07:39:39.145Z,15.50
2018-12-07T07:42:06.540Z,15.10
2018-12-07T07:44:33.921Z,15.50
2018-12-07T07:47:01.429Z,14.20
2018-12-07T07:49:28.931Z,14.50
2018-12-07T07:51:56.324Z,14.90
2018-12-07T07:54:23.754Z,14.93
2018-12-07T07:56:51.140Z,14.50
2018-12-07T07:59:18.522Z,15.33
2018-12-07T08:01:45.965Z,14.70
2018-12-07T08:04:13.421Z,15.20
2018-12-07T08:06:40.806Z,14.27
2018-12-07T08:09:08.330Z,13.80
2018-12-07T08:11:35.784Z,14.57
2018-12-07T08:14:03.259Z,13.17
2018-12-07T08:16:30.654Z,13.90
2018-12-07T08:18:58.045Z,14.00
2018-12-07T08:21:25.437Z,13.77
2018-12-07T08:23:52.923Z,13.87
2018-12-07T08:26:20.354Z,13.60
2018-12-07T08:28:47.741Z,13.27
2018-12-07T08:31:15.149Z,13.67
2018-12-07T08:33:42.539Z,14.00
2018-12-07T08:36:09.917Z,13.50
2018-12-07T08:38:37.337Z,14.03
2018-12-07T08:41:05.021Z,14.70
2018-12-07T08:43:32.414Z,14.00
2018-12-07T08:45:59.826Z,15.00
2018-12-07T08:48:27.213Z,13.83
2018-12-07T08:50:54.602Z,13.30
2018-12-07T08:53:22.004Z,14.00
2018-12-07T08:55:49.388Z,13.30
2018-12-07T08:58:16.789Z,13.47
2018-12-07T09:00:44.230Z,12.70
2018-12-07T09:03:11.657Z,14.10
2018-12-07T09:05:39.051Z,13.17
2018-12-07T09:08:06.458Z,14.03
2018-12-07T09:10:33.849Z,14.70
2018-12-07T09:13:01.256Z,14.20
2018-12-07T09:15:28.737Z,14.40
2018-12-07T09:17:56.134Z,14.10
2018-12-07T09:20:23.527Z,14.47
2018-12-07T09:22:50.922Z,13.63
2018-12-07T09:25:18.426Z,14.67
2018-12-07T09:27:45.813Z,14.13
2018-12-07T09:30:13.200Z,14.03
2018-12-07T09:32:40.588Z,13.27
2018-12-07T09:35:08.059Z,12.60
2018-12-07T09:37:35.532Z,13.20
2018-12-07T09:40:03.171Z,12.93
2018-12-07T09:42:30.610Z,14.50
2018-12-07T09:44:58.014Z,12.87
2018-12-07T09:47:25.392Z,13.70
2018-12-07T09:49:52.806Z,12.43
2018-12-07T09:52:20.232Z,12.33
2018-12-07T09:54:47.630Z,11.97
2018-12-07T09:57:15.024Z,13.30
2018-12-07T09:59:42.421Z,12.50
2018-12-07T10:02:09.804Z,13.77
2018-12-07T10:04:37.277Z,13.10
2018-12-07T10:07:04.709Z,12.50
2018-12-07T10:09:32.145Z,11.80
2018-12-07T10:11:59.550Z,11.73
2018-12-07T10:14:26.943Z,11.67
2018-12-07T10:16:54.338Z,11.73
2018-12-07T10:19:21.773Z,11.80
2018-12-07T10:21:49.368Z,11.50
2018-12-07T10:24:16.768Z,11.00
2018-12-07T10:26:44.246Z,10.40
2018-12-07T10:29:11.640Z,10.37
2018-12-07T10:31:39.030Z,11.00
2018-12-07T10:34:06.442Z,10.80
2018-12-07T10:36:33.909Z,10.70
2018-12-07T10:39:01.302Z,11.43
2018-12-07T10:41:28.773Z,10.80
2018-12-07T10:43:56.179Z,10.80
2018-12-07T10:46:23.590Z,10.80
2018-12-07T10:48:50.985Z,10.00
2018-12-07T10:51:18.457Z,10.30
2018-12-07T10:53:45.932Z,10.10
2018-12-07T10:56:13.373Z,10.17
2018-12-07T10:58:40.836Z,10.50
2018-12-07T11:01:13.918Z,10.00
2018-12-07T11:03:46.769Z,9.67
2018-12-07T11:06:19.857Z,9.50
2018-12-07T11:09:09.834Z,10.60
2018-12-07T11:11:40.089Z,10.20
2018-12-07T11:14:11.791Z,9.80
2018-12-07T11:16:45.051Z,10.00
2018-12-07T11:19:18.278Z,9.70
2018-12-07T11:21:51.318Z,10.03
2018-12-07T11:24:24.352Z,9.87
2018-12-07T11:26:57.396Z,10.13
2018-12-07T11:29:30.517Z,9.30
2018-12-07T11:32:03.587Z,9.13
2018-12-07T11:34:32.915Z,8.70
2018-12-07T11:37:00.298Z,8.60
2018-12-07T11:39:27.692Z,8.60
2018-12-07T11:41:55.218Z,8.70
2018-12-07T11:44:22.669Z,8.50
2018-12-07T11:46:50.093Z,8.23
2018-12-07T11:49:17.573Z,8.47
2018-12-07T11:51:45.041Z,8.43
2018-12-07T11:54:12.505Z,8.23
2018-12-07T11:56:39.889Z,8.07
2018-12-07T11:59:07.277Z,7.57
2018-12-07T12:01:34.658Z,7.70
2018-12-07T12:04:02.127Z,7.03
2018-12-07T12:06:29.517Z,7.10
2018-12-07T12:08:56.985Z,6.83
2018-12-07T12:11:24.448Z,6.20
2018-12-07T12:13:51.849Z,6.83
2018-12-07T12:16:19.332Z,6.53
2018-12-07T12:18:46.842Z,6.33
2018-12-07T12:21:14.289Z,6.70
2018-12-07T12:23:41.777Z,6.20
2018-12-07T12:26:09.261Z,6.40
2018-12-07T12:28:36.701Z,6.20
2018-12-07T12:31:04.086Z,7.20
2018-12-07T12:33:31.474Z,6.67
2018-12-07T12:35:58.983Z,7.00
2018-12-07T12:38:26.365Z,7.40
2018-12-07T12:40:53.825Z,6.80
2018-12-07T12:43:21.265Z,6.40
2018-12-07T12:45:48.650Z,6.40
2018-12-07T12:48:16.170Z,6.87
2018-12-07T12:50:43.604Z,5.90
2018-12-07T12:53:11.175Z,7.10
2018-12-07T12:55:38.559Z,6.87
2018-12-07T12:58:06.066Z,6.90
2018-12-07T13:00:33.594Z,6.43
2018-12-07T13:03:00.977Z,6.50
2018-12-07T13:05:28.455Z,6.20
2018-12-07T13:07:55.911Z,6.60
2018-12-07T13:10:23.294Z,6.30
2018-12-07T13:12:50.681Z,6.10
2018-12-07T13:15:18.271Z,6.40
2018-12-07T13:17:45.659Z,6.10
2018-12-07T13:20:13.086Z,6.07
2018-12-07T13:22:40.555Z,6.33
2018-12-07T13:25:08.026Z,6.40
2018-12-07T13:27:35.463Z,6.40
2018-12-07T13:30:03.002Z,6.30
2018-12-07T13:32:30.554Z,6.53
2018-12-07T13:34:57.934Z,6.10
2018-12-07T13:37:25.329Z,5.90
2018-12-07T13:39:52.779Z,5.70
2018-12-07T13:42:20.309Z,6.20
2018-12-07T13:44:47.879Z,6.33
2018-12-07T13:47:15.547Z,5.53
2018-12-07T13:49:43.019Z,5.70
2018-12-07T13:52:10.488Z,5.93
2018-12-07T13:54:38.050Z,6.00
2018-12-07T13:57:05.733Z,6.20
2018-12-07T13:59:33.434Z,5.80
2018-12-07T14:02:00.902Z,5.63
2018-12-07T14:04:28.422Z,5.40
2018-12-07T14:06:56.086Z,5.30
2018-12-07T14:09:23.676Z,5.33
2018-12-07T14:11:51.329Z,5.47
2018-12-07T14:14:18.911Z,5.40
2018-12-07T14:16:46.476Z,5.40
2018-12-07T14:19:14.033Z,4.90
2018-12-07T14:21:41.694Z,5.50
2018-12-07T14:24:09.277Z,5.50
2018-12-07T14:26:36.746Z,5.60
2018-12-07T14:29:04.507Z,5.00
2018-12-07T14:31:32.024Z,5.00
2018-12-07T14:33:59.675Z,4.90
2018-12-07T14:36:27.145Z,5.10
2018-12-07T14:38:54.653Z,5.10
2018-12-07T14:41:22.100Z,5.40
2018-12-07T14:43:49.686Z,5.10
2018-12-07T14:46:17.343Z,4.97
2018-12-07T14:48:44.992Z,4.97
2018-12-07T14:51:12.530Z,5.13
2018-12-07T14:53:40.051Z,5.17
2018-12-07T14:56:07.693Z,4.70
2018-12-07T14:58:35.254Z,5.13
2018-12-07T15:01:02.827Z,4.30
2018-12-07T15:03:30.261Z,4.80
2018-12-07T15:05:57.905Z,5.37
2018-12-07T15:08:25.568Z,4.97
2018-12-07T15:10:53.056Z,5.60
2018-12-07T15:13:20.720Z,6.47
2018-12-07T15:15:48.121Z,7.43
2018-12-07T15:18:15.701Z,8.20
2018-12-07T15:20:43.223Z,6.93
2018-12-07T15:23:10.733Z,6.00
2018-12-07T15:25:41.453Z,6.00
2018-12-07T15:28:09.346Z,5.90
2018-12-07T15:30:36.928Z,6.53
2018-12-07T15:33:05.016Z,6.30
2018-12-07T15:35:32.643Z,6.73
2018-12-07T15:38:00.412Z,6.80
2018-12-07T15:40:28.082Z,7.20
2018-12-07T15:42:55.654Z,7.10
2018-12-07T15:45:23.095Z,7.10
2018-12-07T15:47:50.572Z,7.47
2018-12-07T15:50:24.876Z,7.30
2018-12-07T15:52:47.473Z,8.03
2018-12-07T15:55:14.987Z,7.47
2018-12-07T15:57:42.727Z,7.50
2018-12-07T16:00:10.239Z,7.23
2018-12-07T16:02:37.667Z,7.20
2018-12-07T16:05:06.135Z,8.60
2018-12-07T16:07:33.844Z,8.27
2018-12-07T16:10:01.432Z,7.70
2018-12-07T16:12:29.186Z,7.80
2018-12-07T16:14:56.942Z,7.87
2018-12-07T16:17:24.514Z,8.40
2018-12-07T16:19:52.104Z,8.00
2018-12-07T16:22:19.982Z,8.03
2018-12-07T16:24:47.679Z,8.87
2018-12-07T16:27:15.228Z,8.63
2018-12-07T16:29:42.934Z,9.00
2018-12-07T16:32:10.551Z,8.70
2018-12-07T16:34:38.078Z,9.33
2018-12-07T16:37:05.686Z,8.30
2018-12-07T16:39:33.326Z,9.07
2018-12-07T16:42:01.278Z,8.87
2018-12-07T16:44:28.744Z,8.50
2018-12-07T16:46:56.259Z,8.60
2018-12-07T16:49:23.951Z,8.33
2018-12-07T16:51:51.933Z,8.43
2018-12-07T16:54:19.501Z,8.17
2018-12-07T16:56:47.099Z,9.10
2018-12-07T16:59:14.959Z,8.80
2018-12-07T17:01:42.616Z,9.53
2018-12-07T17:04:10.058Z,10.13
2018-12-07T17:06:37.722Z,10.57
2018-12-07T17:09:06.699Z,10.40
2018-12-07T17:11:34.295Z,10.17
2018-12-07T17:14:02.090Z,9.30
2018-12-07T17:16:29.629Z,9.30
2018-12-07T17:18:57.278Z,10.07
2018-12-07T17:21:24.830Z,9.83
2018-12-07T17:23:52.698Z,10.97
2018-12-07T17:26:20.391Z,10.10
2018-12-07T17:28:48.126Z,9.30
2018-12-07T17:31:15.737Z,9.10
2018-12-07T17:33:43.443Z,9.60
2018-12-07T17:36:11.123Z,9.70
2018-12-07T17:38:38.558Z,9.87
2018-12-07T17:41:06.198Z,9.50
2018-12-07T17:43:33.949Z,9.80
2018-12-07T17:46:01.562Z,9.70
2018-12-07T17:48:29.230Z,10.70
2018-12-07T17:50:56.694Z,11.57
2018-12-07T17:53:24.421Z,10.43
2018-12-07T17:55:52.164Z,11.00
2018-12-07T17:58:19.744Z,10.10
2018-12-07T18:00:47.630Z,10.43
2018-12-07T18:03:15.111Z,10.07
2018-12-07T18:05:42.559Z,9.43
2018-12-07T18:08:10.144Z,9.00
2018-12-07T18:10:37.729Z,9.33
2018-12-07T18:13:05.405Z,9.90
2018-12-07T18:15:32.853Z,9.80
2018-12-07T18:18:00.344Z,9.90
2018-12-07T18:20:27.968Z,10.53
2018-12-07T18:22:55.600Z,10.30
2018-12-07T18:25:23.498Z,10.30
2018-12-07T18:27:51.329Z,9.50
2018-12-07T18:30:19.024Z,9.50
2018-12-07T18:32:46.758Z,10.30
2018-12-07T18:35:14.288Z,10.30
2018-12-07T18:37:42.150Z,10.50
2018-12-07T18:40:09.743Z,10.60
2018-12-07T18:42:37.286Z,9.73
2018-12-07T18:45:04.858Z,10.30
2018-12-07T18:47:32.421Z,10.43
2018-12-07T18:50:00.012Z,11.40
2018-12-07T18:52:27.693Z,12.80
2018-12-07T18:54:55.407Z,12.70
2018-12-07T18:57:22.990Z,13.30
2018-12-07T18:59:50.635Z,12.90
2018-12-07T19:02:18.302Z,13.60
2018-12-07T19:04:45.877Z,13.50
2018-12-07T19:07:13.397Z,12.97
2018-12-07T19:09:40.854Z,12.53
2018-12-07T19:12:08.398Z,12.87
2018-12-07T19:14:35.905Z,11.93
2018-12-07T19:17:03.819Z,11.90
2018-12-07T19:19:31.654Z,12.20
2018-12-07T19:21:59.675Z,12.20
2018-12-07T19:24:27.513Z,11.97
2018-12-07T19:26:55.284Z,11.60
2018-12-07T19:29:23.022Z,11.53
2018-12-07T19:31:50.852Z,11.43
2018-12-07T19:34:18.706Z,10.60
2018-12-07T19:36:46.358Z,12.07
2018-12-07T19:39:14.146Z,11.20
2018-12-07T19:41:41.814Z,11.77
2018-12-07T19:44:09.459Z,11.57
2018-12-07T19:46:37.071Z,12.40
2018-12-07T19:49:04.970Z,11.67
2018-12-07T19:51:32.785Z,11.43
2018-12-07T19:54:00.349Z,11.40
2018-12-07T19:56:27.790Z,11.47
2018-12-07T19:58:55.260Z,12.80
2018-12-07T20:01:22.661Z,13.03
2018-12-07T20:03:50.054Z,11.63
2018-12-07T20:06:17.597Z,12.17
2018-12-07T20:08:45.065Z,11.20
2018-12-07T20:11:12.759Z,11.57
2018-12-07T20:13:40.358Z,11.43
2018-12-07T20:16:07.962Z,11.40
2018-12-07T20:18:35.671Z,11.10
2018-12-07T20:21:03.234Z,11.13
2018-12-07T20:23:30.806Z,11.50
2018-12-07T20:25:58.391Z,13.20
2018-12-07T20:28:25.980Z,11.60
2018-12-07T20:30:53.436Z,12.30
2018-12-07T20:33:20.920Z,12.30
2018-12-07T20:35:48.447Z,12.20
2018-12-07T20:38:16.013Z,12.13
2018-12-07T20:40:44.501Z,12.07
2018-12-07T20:43:12.362Z,11.73
2018-12-07T20:45:39.912Z,11.90
2018-12-07T20:48:07.591Z,12.10
2018-12-07T20:50:35.573Z,13.53
2018-12-07T20:53:03.382Z,13.83
2018-12-07T20:55:31.149Z,12.20
2018-12-07T20:57:58.817Z,10.90
2018-12-07T21:00:26.219Z,12.80
2018-12-07T21:02:53.922Z,13.30
2018-12-07T21:12:01.944Z,12.77
2018-12-07T21:14:29.923Z,13.07
2018-12-07T21:17:08.084Z,13.23
2018-12-07T21:19:37.286Z,11.83
2018-12-07T21:22:04.835Z,12.27
2018-12-07T21:24:32.772Z,12.20
2018-12-07T21:27:00.476Z,11.60
2018-12-07T21:29:28.175Z,12.50
2018-12-07T21:31:58.541Z,11.93
2018-12-07T21:37:24.543Z,13.27
2018-12-07T21:39:52.858Z,12.70
2018-12-07T21:42:20.372Z,13.30
2018-12-07T21:44:48.281Z,13.60
2018-12-07T21:47:15.814Z,14.43
2018-12-07T21:49:43.747Z,13.50
2018-12-07T21:52:15.043Z,13.63
2018-12-07T21:54:42.830Z,14.43
2018-12-07T21:57:10.752Z,15.30
2018-12-07T21:59:38.299Z,15.60
2018-12-07T22:02:05.764Z,15.37
2018-12-07T22:04:33.392Z,14.13
2018-12-07T22:07:01.074Z,13.53
2018-12-07T22:09:28.741Z,13.13
2018-12-07T22:11:56.344Z,12.67
2018-12-07T22:14:23.815Z,12.60
2018-12-07T22:16:51.600Z,12.57
2018-12-07T22:19:19.095Z,12.17
2018-12-07T22:21:46.704Z,11.50
2018-12-07T22:24:14.243Z,12.57
2018-12-07T22:26:41.711Z,12.40
2018-12-07T22:29:09.341Z,11.60
2018-12-07T22:31:36.939Z,11.50
2018-12-07T22:34:04.582Z,11.90
2018-12-07T22:36:32.346Z,11.90
2018-12-07T22:39:00.146Z,12.53
2018-12-07T22:41:27.963Z,13.97
2018-12-07T22:43:55.807Z,14.30
2018-12-07T22:46:23.389Z,15.10
2018-12-07T22:48:51.237Z,16.67
2018-12-07T22:51:20.868Z,16.70
2018-12-07T22:53:48.373Z,15.67
2018-12-07T22:56:15.933Z,16.10
2018-12-07T22:58:43.330Z,16.10
2018-12-07T23:01:10.775Z,15.33
2018-12-07T23:03:38.165Z,16.50
2018-12-07T23:06:05.605Z,16.80
2018-12-07T23:08:33.118Z,15.00
2018-12-07T23:11:00.566Z,16.10
2018-12-07T23:13:27.965Z,15.50
2018-12-07T23:15:55.349Z,15.23
2018-12-07T23:18:22.754Z,14.97
2018-12-07T23:20:50.223Z,16.20
2018-12-07T23:23:17.699Z,14.63
2018-12-07T23:25:45.134Z,15.10
2018-12-07T23:28:12.543Z,13.90
2018-12-07T23:30:40.156Z,14.20
2018-12-07T23:33:07.554Z,14.83
2018-12-07T23:35:35.022Z,15.83
2018-12-07T23:38:02.427Z,15.03
2018-12-07T23:40:29.812Z,13.27
2018-12-07T23:42:59.184Z,13.73
2018-12-07T23:45:26.610Z,14.83
2018-12-07T23:47:54.083Z,13.77
2018-12-07T23:50:21.592Z,13.60
2018-12-07T23:52:49.041Z,14.60
2018-12-07T23:55:16.565Z,14.30
2018-12-07T23:57:43.997Z,13.27
